createdAt,value
2019-03-19T00:02:14.797Z,99754.22
2019-03-19T00:04:43.171Z,99763.55
2019-03-19T00:07:11.531Z,99758.81
2019-03-19T00:09:39.968Z,99764.95
2019-03-19T00:12:08.267Z,99764.64
2019-03-19T00:14:36.645Z,99763.41
2019-03-19T00:17:05.011Z,99760.68
2019-03-19T00:19:33.386Z,99759.90
2019-03-19T00:22:01.745Z,99766.59
2019-03-19T00:24:30.118Z,99772.81
2019-03-19T00:26:58.481Z,99771.17
2019-03-19T00:29:26.851Z,99766.84
2019-03-19T00:31:55.229Z,99763.92
2019-03-19T00:34:23.594Z,99768.70
2019-03-19T00:36:51.960Z,99769.66
2019-03-19T00:39:20.333Z,99769.83
2019-03-19T00:41:48.689Z,99773.79
2019-03-19T00:44:17.075Z,99778.58
2019-03-19T00:46:45.435Z,99776.97
2019-03-19T00:49:13.811Z,99771.20
2019-03-19T00:51:42.173Z,99773.09
2019-03-19T00:54:10.782Z,99777.14
2019-03-19T00:56:39.147Z,99779.83
2019-03-19T00:59:07.521Z,99774.19
2019-03-19T01:01:35.886Z,99784.28
2019-03-19T01:04:04.436Z,99789.64
2019-03-19T01:06:32.803Z,99795.37
2019-03-19T01:09:01.188Z,99785.99
2019-03-19T01:11:29.555Z,99794.69
2019-03-19T01:13:57.919Z,99792.50
2019-03-19T01:16:26.285Z,99790.44
2019-03-19T01:18:54.659Z,99797.04
2019-03-19T01:21:23.025Z,99792.22
2019-03-19T01:23:51.397Z,99790.58
2019-03-19T01:26:19.755Z,99800.30
2019-03-19T01:28:48.114Z,99804.80
2019-03-19T01:31:16.487Z,99810.08
2019-03-19T01:33:44.847Z,99811.39
2019-03-19T01:36:13.228Z,99807.52
2019-03-19T01:38:41.588Z,99810.24
2019-03-19T01:41:09.965Z,99815.52
2019-03-19T01:43:38.332Z,99817.72
2019-03-19T01:46:06.703Z,99815.53
2019-03-19T01:48:35.070Z,99814.30
2019-03-19T01:51:03.446Z,99823.53
2019-03-19T01:53:31.813Z,99820.14
2019-03-19T01:56:05.270Z,99819.28
2019-03-19T01:58:30.276Z,99813.15
2019-03-19T02:00:58.892Z,99810.14
2019-03-19T02:03:27.079Z,99818.96
2019-03-19T02:05:55.528Z,99821.23
2019-03-19T02:08:23.897Z,99823.00
2019-03-19T02:10:52.316Z,99820.90
2019-03-19T02:13:20.691Z,99820.45
2019-03-19T02:15:49.063Z,99822.22
2019-03-19T02:18:17.442Z,99818.84
2019-03-19T02:20:45.827Z,99825.02
2019-03-19T02:23:14.202Z,99821.93
2019-03-19T02:25:42.578Z,99825.02
2019-03-19T02:28:10.961Z,99827.74
2019-03-19T02:30:39.360Z,99831.33
2019-03-19T02:33:07.721Z,99834.88
2019-03-19T02:35:36.102Z,99833.18
2019-03-19T02:38:04.475Z,99828.28
2019-03-19T02:40:32.860Z,99832.40
2019-03-19T02:43:01.220Z,99841.17
2019-03-19T02:45:29.605Z,99842.95
2019-03-19T02:47:57.980Z,99849.92
2019-03-19T02:50:26.362Z,99846.98
2019-03-19T02:52:54.740Z,99850.16
2019-03-19T02:55:23.110Z,99847.52
2019-03-19T02:57:51.479Z,99848.47
2019-03-19T03:00:20.023Z,99850.70
2019-03-19T03:02:48.411Z,99858.23
2019-03-19T03:05:20.631Z,99856.91
2019-03-19T03:07:49.117Z,99862.19
2019-03-19T03:10:17.560Z,99866.23
2019-03-19T03:12:45.945Z,99871.42
2019-03-19T03:15:14.855Z,99882.88
2019-03-19T03:17:43.244Z,99888.23
2019-03-19T03:20:13.992Z,99888.23
2019-03-19T03:22:42.669Z,99895.39
2019-03-19T03:25:12.566Z,99907.63
2019-03-19T03:27:40.950Z,99907.26
2019-03-19T03:30:12.401Z,99899.80
2019-03-19T03:32:40.881Z,99901.13
2019-03-19T03:35:10.534Z,99905.98
2019-03-19T03:37:38.991Z,99910.43
2019-03-19T03:40:10.486Z,99905.23
2019-03-19T03:42:38.872Z,99911.34
2019-03-19T03:45:10.686Z,99909.64
2019-03-19T03:47:39.057Z,99910.17
2019-03-19T03:50:10.486Z,99907.47
2019-03-19T03:52:38.854Z,99907.09
2019-03-19T03:55:13.954Z,99912.73
2019-03-19T03:57:42.402Z,99908.00
2019-03-19T04:00:18.289Z,99918.55
2019-03-19T04:02:46.659Z,99915.16
2019-03-19T04:05:15.085Z,99916.52
2019-03-19T04:07:43.463Z,99922.27
2019-03-19T04:10:16.568Z,99930.19
2019-03-19T04:12:44.960Z,99933.73
2019-03-19T04:15:14.406Z,99941.19
2019-03-19T04:17:42.822Z,99935.98
2019-03-19T04:20:13.478Z,99939.00
2019-03-19T04:22:41.871Z,99938.17
2019-03-19T04:25:11.166Z,99940.89
2019-03-19T04:27:40.674Z,99943.98
2019-03-19T04:30:15.291Z,99948.80
2019-03-19T04:32:43.675Z,99947.60
2019-03-19T04:35:12.125Z,99947.22
2019-03-19T04:37:40.522Z,99938.94
2019-03-19T04:40:11.925Z,99940.25
2019-03-19T04:42:40.310Z,99946.61
2019-03-19T04:45:10.916Z,99942.58
2019-03-19T04:47:39.293Z,99942.50
2019-03-19T04:50:10.744Z,99949.55
2019-03-19T04:52:39.120Z,99941.72
2019-03-19T04:55:10.365Z,99934.67
2019-03-19T04:57:38.731Z,99937.62
2019-03-19T05:00:20.066Z,99945.45
2019-03-19T05:02:48.454Z,99948.39
2019-03-19T05:05:16.897Z,99960.66
2019-03-19T05:07:45.263Z,99953.73
2019-03-19T05:10:15.635Z,99958.03
2019-03-19T05:12:44.089Z,99957.31
2019-03-19T05:15:12.814Z,99964.28
2019-03-19T05:17:41.155Z,99959.01
2019-03-19T05:20:13.355Z,99964.28
2019-03-19T05:22:41.725Z,99965.22
2019-03-19T05:25:10.758Z,99971.33
2019-03-19T05:27:39.176Z,99967.94
2019-03-19T05:30:10.744Z,99969.86
2019-03-19T05:32:39.121Z,99955.36
2019-03-19T05:35:09.338Z,99970.69
2019-03-19T05:37:37.699Z,99987.08
2019-03-19T05:40:13.361Z,99998.94
2019-03-19T05:42:41.729Z,99987.98
2019-03-19T05:45:13.999Z,99993.17
2019-03-19T05:47:42.539Z,99993.25
2019-03-19T05:50:13.117Z,100003.41
2019-03-19T05:52:41.494Z,100006.88
2019-03-19T05:55:10.327Z,100009.06
2019-03-19T05:57:48.853Z,100003.80
2019-03-19T06:00:11.869Z,100010.91
2019-03-19T06:02:40.287Z,100003.95
2019-03-19T06:05:10.815Z,100005.79
2019-03-19T06:07:39.191Z,100009.75
2019-03-19T06:10:12.706Z,100013.17
2019-03-19T06:12:41.089Z,100012.30
2019-03-19T06:15:14.262Z,100014.94
2019-03-19T06:17:42.725Z,100016.71
2019-03-19T06:20:20.533Z,100016.41
2019-03-19T06:22:48.908Z,100016.41
2019-03-19T06:25:17.316Z,100015.55
2019-03-19T06:27:45.697Z,100019.50
2019-03-19T06:30:17.180Z,100029.06
2019-03-19T06:32:45.558Z,100032.53
2019-03-19T06:35:14.772Z,100035.12
2019-03-19T06:37:43.149Z,100042.95
2019-03-19T06:40:13.845Z,100053.62
2019-03-19T06:42:42.217Z,100047.02
2019-03-19T06:45:17.892Z,100050.60
2019-03-19T06:47:46.330Z,100044.53
2019-03-19T06:50:16.617Z,100048.33
2019-03-19T06:52:45.069Z,100055.03
2019-03-19T06:55:14.193Z,100065.64
2019-03-19T06:57:42.582Z,100060.45
2019-03-19T07:00:21.309Z,100066.59
2019-03-19T07:02:49.692Z,100065.05
2019-03-19T07:05:18.807Z,100069.72
2019-03-19T07:07:47.456Z,100083.24
2019-03-19T07:10:16.767Z,100081.85
2019-03-19T07:12:45.148Z,100085.81
2019-03-19T07:15:21.343Z,100095.27
2019-03-19T07:17:49.725Z,100090.93
2019-03-19T07:20:27.794Z,100093.88
2019-03-19T07:22:56.171Z,100096.63
2019-03-19T07:25:24.631Z,100097.55
2019-03-19T07:27:53.013Z,100096.91
2019-03-19T07:30:26.589Z,100094.23
2019-03-19T07:32:54.965Z,100092.08
2019-03-19T07:35:23.688Z,100089.48
2019-03-19T07:37:52.060Z,100090.86
2019-03-19T07:40:20.449Z,100093.22
2019-03-19T07:42:48.876Z,100096.80
2019-03-19T07:45:27.533Z,100106.51
2019-03-19T07:47:55.900Z,100106.61
2019-03-19T07:50:24.636Z,100110.74
2019-03-19T07:52:53.023Z,100110.83
2019-03-19T07:55:21.475Z,100114.10
2019-03-19T07:57:49.850Z,100125.13
2019-03-19T08:00:22.576Z,100120.40
2019-03-19T08:02:50.955Z,100123.20
2019-03-19T08:05:19.328Z,100123.30
2019-03-19T08:07:47.712Z,100117.34
2019-03-19T08:10:19.224Z,100119.66
2019-03-19T08:12:47.786Z,100119.36
2019-03-19T08:15:18.197Z,100116.39
2019-03-19T08:17:46.716Z,100121.38
2019-03-19T08:20:18.614Z,100117.63
2019-03-19T08:22:47.013Z,100123.86
2019-03-19T08:25:16.415Z,100116.99
2019-03-19T08:27:44.873Z,100126.78
2019-03-19T08:30:20.742Z,100132.22
2019-03-19T08:32:49.133Z,100131.51
2019-03-19T08:35:17.510Z,100135.63
2019-03-19T08:37:45.898Z,100128.30
2019-03-19T08:40:15.106Z,100135.44
2019-03-19T08:42:43.663Z,100122.85
2019-03-19T08:45:15.086Z,100129.98
2019-03-19T08:47:43.486Z,100129.73
2019-03-19T08:50:14.364Z,100135.08
2019-03-19T08:52:42.754Z,100127.37
2019-03-19T08:55:11.469Z,100130.98
2019-03-19T08:57:39.856Z,100139.94
2019-03-19T09:00:22.709Z,100133.14
2019-03-19T09:02:51.090Z,100145.48
2019-03-19T09:05:19.493Z,100146.94
2019-03-19T09:07:47.855Z,100147.91
2019-03-19T09:10:20.597Z,100140.47
2019-03-19T09:12:49.162Z,100139.37
2019-03-19T09:15:19.617Z,100141.63
2019-03-19T09:17:48.007Z,100153.19
2019-03-19T09:20:17.141Z,100167.48
2019-03-19T09:22:45.526Z,100163.27
2019-03-19T09:25:13.977Z,100162.05
2019-03-19T09:27:42.376Z,100160.48
2019-03-19T09:30:18.468Z,100166.37
2019-03-19T09:32:46.845Z,100170.84
2019-03-19T09:35:15.316Z,100179.59
2019-03-19T09:37:44.887Z,100188.20
2019-03-19T09:40:16.721Z,100185.52
2019-03-19T09:42:45.112Z,100181.04
2019-03-19T09:45:14.845Z,100180.81
2019-03-19T09:47:43.308Z,100176.23
2019-03-19T09:50:16.174Z,100175.90
2019-03-19T09:52:44.807Z,100170.34
2019-03-19T09:55:14.011Z,100178.48
2019-03-19T09:57:42.388Z,100184.66
2019-03-19T10:00:19.184Z,100180.16
2019-03-19T10:02:47.565Z,100187.46
2019-03-19T10:05:16.398Z,100190.03
2019-03-19T10:07:44.784Z,100192.12
2019-03-19T10:10:23.890Z,100192.02
2019-03-19T10:12:52.331Z,100198.20
2019-03-19T10:15:20.794Z,100195.84
2019-03-19T10:17:50.151Z,100185.70
2019-03-19T10:20:19.809Z,100181.39
2019-03-19T10:22:48.182Z,100180.10
2019-03-19T10:25:17.184Z,100184.07
2019-03-19T10:27:45.559Z,100197.97
2019-03-19T10:30:18.890Z,100192.78
2019-03-19T10:32:47.333Z,100192.13
2019-03-19T10:35:16.116Z,100189.27
2019-03-19T10:37:44.546Z,100183.23
2019-03-19T10:40:15.365Z,100176.97
2019-03-19T10:42:43.908Z,100187.98
2019-03-19T10:45:16.710Z,100185.40
2019-03-19T10:47:45.083Z,100186.10
2019-03-19T10:50:16.413Z,100189.71
2019-03-19T10:52:44.868Z,100187.16
2019-03-19T10:55:13.254Z,100195.47
2019-03-19T10:57:41.615Z,100190.45
2019-03-19T11:00:24.534Z,100197.21
2019-03-19T11:02:53.144Z,100197.84
2019-03-19T11:05:22.735Z,100196.57
2019-03-19T11:07:51.109Z,100195.55
2019-03-19T11:10:20.041Z,100195.67
2019-03-19T11:12:48.480Z,100195.92
2019-03-19T11:15:20.598Z,100197.40
2019-03-19T11:17:48.984Z,100199.24
2019-03-19T11:20:21.186Z,100206.12
2019-03-19T11:22:49.568Z,100208.27
2019-03-19T11:25:22.979Z,100200.94
2019-03-19T11:27:51.338Z,100205.38
2019-03-19T11:30:24.728Z,100210.07
2019-03-19T11:32:53.126Z,100198.44
2019-03-19T11:35:21.811Z,100203.36
2019-03-19T11:37:50.219Z,100210.47
2019-03-19T11:40:19.905Z,100204.66
2019-03-19T11:42:48.437Z,100197.98
2019-03-19T11:45:19.388Z,100192.14
2019-03-19T11:47:47.979Z,100187.83
2019-03-19T11:50:22.409Z,100190.00
2019-03-19T11:52:51.138Z,100196.61
2019-03-19T11:55:19.963Z,100192.75
2019-03-19T11:57:48.313Z,100187.67
2019-03-19T12:00:21.443Z,100189.34
2019-03-19T12:02:49.872Z,100193.80
2019-03-19T12:05:18.211Z,100196.77
2019-03-19T12:07:46.592Z,100192.44
2019-03-19T12:10:15.130Z,100190.73
2019-03-19T12:12:43.516Z,100188.38
2019-03-19T12:15:12.583Z,100189.16
2019-03-19T12:17:40.974Z,100184.28
2019-03-19T12:20:11.589Z,100177.89
2019-03-19T12:22:40.058Z,100179.00
2019-03-19T12:25:12.415Z,100173.94
2019-03-19T12:27:40.875Z,100178.30
2019-03-19T12:30:22.446Z,100178.11
2019-03-19T12:32:48.393Z,100179.27
2019-03-19T12:35:18.608Z,100171.36
2019-03-19T12:37:46.993Z,100170.46
2019-03-19T12:40:17.008Z,100173.20
2019-03-19T12:42:45.395Z,100166.34
2019-03-19T12:45:23.396Z,100171.20
2019-03-19T12:47:51.782Z,100171.42
2019-03-19T12:50:24.375Z,100162.70
2019-03-19T12:52:52.770Z,100169.75
2019-03-19T12:55:21.218Z,100163.48
2019-03-19T12:57:49.604Z,100159.03
2019-03-19T13:00:34.108Z,100163.33
2019-03-19T13:02:58.146Z,100157.91
2019-03-19T13:05:26.508Z,100162.56
2019-03-19T13:07:54.899Z,100167.11
2019-03-19T13:10:25.086Z,100172.63
2019-03-19T13:12:53.533Z,100161.23
2019-03-19T13:15:22.075Z,100163.23
2019-03-19T13:17:50.458Z,100167.05
2019-03-19T13:20:22.978Z,100166.34
2019-03-19T13:22:51.437Z,100171.45
2019-03-19T13:25:21.805Z,100177.82
2019-03-19T13:27:50.191Z,100178.08
2019-03-19T13:30:21.621Z,100170.72
2019-03-19T13:32:50.003Z,100174.95
2019-03-19T13:35:18.453Z,100177.34
2019-03-19T13:37:47.149Z,100181.02
2019-03-19T13:40:17.530Z,100177.59
2019-03-19T13:42:46.082Z,100179.12
2019-03-19T13:45:17.586Z,100177.03
2019-03-19T13:47:45.907Z,100178.95
2019-03-19T13:50:18.288Z,100174.30
2019-03-19T13:52:46.951Z,100172.66
2019-03-19T13:55:24.468Z,100169.64
2019-03-19T13:57:52.845Z,100171.12
2019-03-19T14:00:21.294Z,100176.94
2019-03-19T14:02:49.678Z,100170.86
2019-03-19T14:05:18.659Z,100178.52
2019-03-19T14:07:47.098Z,100173.70
2019-03-19T14:10:16.596Z,100164.98
2019-03-19T14:12:45.100Z,100169.05
2019-03-19T14:15:18.406Z,100170.38
2019-03-19T14:17:46.787Z,100175.78
2019-03-19T14:20:16.204Z,100173.69
2019-03-19T14:22:45.445Z,100171.95
2019-03-19T14:25:15.095Z,100176.89
2019-03-19T14:27:43.717Z,100181.43
2019-03-19T14:30:22.368Z,100181.52
2019-03-19T14:32:50.766Z,100178.97
2019-03-19T14:35:19.308Z,100180.02
2019-03-19T14:40:22.691Z,100189.09
2019-03-19T14:42:51.135Z,100190.02
2019-03-19T14:45:19.862Z,100187.91
2019-03-19T14:47:48.241Z,100185.36
2019-03-19T14:50:24.616Z,100193.78
2019-03-19T14:52:52.989Z,100192.55
2019-03-19T14:55:21.519Z,100200.00
2019-03-19T14:57:51.079Z,100194.33
2019-03-19T15:00:21.656Z,100192.05
2019-03-19T15:02:50.035Z,100189.49
2019-03-19T15:05:18.478Z,100188.75
2019-03-19T15:07:46.850Z,100183.91
2019-03-19T15:10:22.470Z,100189.31
2019-03-19T15:12:50.842Z,100189.41
2019-03-19T15:15:20.171Z,100189.41
2019-03-19T15:17:48.538Z,100189.41
2019-03-19T15:20:20.751Z,100186.34
2019-03-19T15:22:49.213Z,100181.45
2019-03-19T15:25:17.682Z,100183.70
2019-03-19T15:27:46.128Z,100186.84
2019-03-19T15:30:20.812Z,100185.52
2019-03-19T15:32:49.267Z,100184.66
2019-03-19T15:35:17.706Z,100185.11
2019-03-19T15:37:46.031Z,100188.23
2019-03-19T15:40:15.357Z,100184.66
2019-03-19T15:42:43.796Z,100185.67
2019-03-19T15:45:19.652Z,100183.98
2019-03-19T15:47:48.067Z,100173.16
2019-03-19T15:50:16.865Z,100165.02
2019-03-19T15:52:45.261Z,100174.30
2019-03-19T15:55:14.984Z,100186.72
2019-03-19T15:57:43.361Z,100181.51
2019-03-19T16:00:16.992Z,100177.04
2019-03-19T16:02:45.557Z,100181.02
2019-03-19T16:05:14.583Z,100175.71
2019-03-19T16:07:43.302Z,100182.44
2019-03-19T16:10:19.647Z,100189.06
2019-03-19T16:12:48.107Z,100186.81
2019-03-19T16:15:17.315Z,100189.06
2019-03-19T16:17:45.692Z,100195.32
2019-03-19T16:20:16.299Z,100191.34
2019-03-19T16:22:44.678Z,100194.55
2019-03-19T16:25:13.340Z,100195.78
2019-03-19T16:27:42.550Z,100194.09
2019-03-19T16:30:18.684Z,100190.94
2019-03-19T16:32:47.066Z,100196.19
2019-03-19T16:35:15.788Z,100202.28
2019-03-19T16:37:44.224Z,100208.20
2019-03-19T16:40:19.541Z,100200.00
2019-03-19T16:42:47.994Z,100213.28
2019-03-19T16:45:17.956Z,100215.51
2019-03-19T16:47:46.603Z,100214.31
2019-03-19T16:50:17.158Z,100219.00
2019-03-19T16:52:45.545Z,100223.69
2019-03-19T16:55:16.266Z,100222.61
2019-03-19T16:57:44.596Z,100224.83
2019-03-19T17:00:15.653Z,100230.50
2019-03-19T17:02:44.046Z,100236.59
2019-03-19T17:05:13.742Z,100235.55
2019-03-19T17:07:42.125Z,100239.02
2019-03-19T17:10:15.869Z,100242.22
2019-03-19T17:12:44.311Z,100243.36
2019-03-19T17:15:14.819Z,100244.83
2019-03-19T17:17:43.316Z,100243.69
2019-03-19T17:20:16.213Z,100245.56
2019-03-19T17:22:44.769Z,100248.80
2019-03-19T17:25:23.326Z,100254.24
2019-03-19T17:27:51.711Z,100259.62
2019-03-19T17:30:30.993Z,100256.38
2019-03-19T17:32:59.386Z,100255.14
2019-03-19T17:35:28.271Z,100267.25
2019-03-19T17:37:56.940Z,100263.91
2019-03-19T17:40:25.285Z,100278.94
2019-03-19T17:42:53.676Z,100274.59
2019-03-19T17:45:22.121Z,100277.79
2019-03-19T17:47:50.511Z,100276.09
2019-03-19T17:50:23.441Z,100287.23
2019-03-19T17:52:53.089Z,100289.48
2019-03-19T17:55:21.649Z,100293.16
2019-03-19T17:57:50.035Z,100292.44
2019-03-19T18:00:29.131Z,100289.47
2019-03-19T18:02:57.576Z,100294.02
2019-03-19T18:05:26.024Z,100293.79
2019-03-19T18:07:54.552Z,100300.33
2019-03-19T18:10:23.085Z,100299.25
2019-03-19T18:12:51.683Z,100310.39
2019-03-19T18:15:20.633Z,100306.59
2019-03-19T18:17:49.017Z,100307.13
2019-03-19T18:20:18.233Z,100305.89
2019-03-19T18:22:46.765Z,100308.22
2019-03-19T18:25:19.049Z,100305.74
2019-03-19T18:27:47.551Z,100316.05
2019-03-19T18:30:24.379Z,100323.58
2019-03-19T18:32:52.765Z,100316.27
2019-03-19T18:35:21.127Z,100320.78
2019-03-19T18:37:49.617Z,100316.89
2019-03-19T18:40:18.909Z,100325.23
2019-03-19T18:42:47.296Z,100327.64
2019-03-19T18:45:17.778Z,100327.27
2019-03-19T18:47:46.168Z,100328.73
2019-03-19T18:50:16.456Z,100326.73
2019-03-19T18:52:44.938Z,100326.73
2019-03-19T18:55:13.393Z,100331.08
2019-03-19T18:57:42.002Z,100327.19
2019-03-19T19:00:18.254Z,100334.27
2019-03-19T19:02:50.193Z,100336.29
2019-03-19T19:05:18.250Z,100338.31
2019-03-19T19:07:46.697Z,100343.90
2019-03-19T19:10:15.816Z,100345.80
2019-03-19T19:12:44.186Z,100340.50
2019-03-19T19:15:19.188Z,100348.53
2019-03-19T19:17:47.564Z,100350.77
2019-03-19T19:20:16.591Z,100354.36
2019-03-19T19:22:45.036Z,100355.19
2019-03-19T19:25:20.384Z,100356.59
2019-03-19T19:27:48.900Z,100358.41
2019-03-19T19:30:23.285Z,100360.89
2019-03-19T19:33:00.929Z,100364.00
2019-03-19T19:35:21.786Z,100365.78
2019-03-19T19:37:50.333Z,100367.76
2019-03-19T19:40:18.987Z,100369.45
2019-03-19T19:42:47.364Z,100369.08
2019-03-19T19:45:16.710Z,100369.21
2019-03-19T19:47:45.155Z,100375.83
2019-03-19T19:50:20.159Z,100375.38
2019-03-19T19:52:48.741Z,100379.87
2019-03-19T19:55:17.170Z,100380.28
2019-03-19T19:57:45.601Z,100379.05
2019-03-19T20:00:16.689Z,100385.70
2019-03-19T20:02:45.297Z,100385.78
2019-03-19T20:05:13.754Z,100395.99
2019-03-19T20:07:42.122Z,100400.05
2019-03-19T20:10:13.634Z,100400.91
2019-03-19T20:12:42.028Z,100405.41
2019-03-19T20:15:11.558Z,100407.65
2019-03-19T20:17:40.076Z,100406.73
2019-03-19T20:20:11.842Z,100408.52
2019-03-19T20:22:40.221Z,100409.38
2019-03-19T20:25:08.626Z,100417.78
2019-03-19T20:27:37.018Z,100413.89
2019-03-19T20:30:16.990Z,100417.06
2019-03-19T20:32:45.458Z,100419.42
2019-03-19T20:35:13.964Z,100426.53
2019-03-19T20:37:42.308Z,100422.72
2019-03-19T20:40:13.642Z,100426.27
2019-03-19T20:42:42.207Z,100428.05
2019-03-19T20:45:18.086Z,100431.27
2019-03-19T20:47:46.537Z,100441.84
2019-03-19T20:50:23.697Z,100447.67
2019-03-19T20:52:52.154Z,100439.63
2019-03-19T20:55:20.621Z,100439.63
2019-03-19T20:57:49.027Z,100447.41
2019-03-19T21:00:18.424Z,100449.68
2019-03-19T21:02:46.779Z,100454.48
2019-03-19T21:05:15.236Z,100457.20
2019-03-19T21:07:43.615Z,100456.91
2019-03-19T21:10:17.149Z,100459.09
2019-03-19T21:12:45.615Z,100463.97
2019-03-19T21:15:29.982Z,100461.09
2019-03-19T21:17:58.616Z,100460.69
2019-03-19T21:20:27.072Z,100458.27
2019-03-19T21:22:55.462Z,100460.20
2019-03-19T21:25:23.849Z,100465.15
2019-03-19T21:27:52.263Z,100469.19
2019-03-19T21:30:21.678Z,100466.77
2019-03-19T21:32:50.141Z,100472.14
2019-03-19T21:35:22.471Z,100475.31
2019-03-19T21:37:51.107Z,100483.31
2019-03-19T21:40:19.672Z,100480.48
2019-03-19T21:42:48.047Z,100480.89
2019-03-19T21:45:20.630Z,100488.03
2019-03-19T21:47:49.100Z,100491.13
2019-03-19T21:50:18.631Z,100495.09
2019-03-19T21:52:47.019Z,100495.16
2019-03-19T21:55:15.405Z,100491.66
2019-03-19T21:57:43.854Z,100486.44
2019-03-19T22:00:14.959Z,100490.86
2019-03-19T22:02:43.350Z,100495.31
2019-03-19T22:05:11.801Z,100498.86
2019-03-19T22:07:40.179Z,100496.74
2019-03-19T22:10:19.747Z,100500.33
2019-03-19T22:12:49.522Z,100495.50
2019-03-19T22:15:26.139Z,100497.69
2019-03-19T22:17:54.529Z,100498.70
2019-03-19T22:20:22.991Z,100497.38
2019-03-19T22:22:51.543Z,100497.38
2019-03-19T22:25:19.910Z,100501.37
2019-03-19T22:27:48.309Z,100500.55
2019-03-19T22:30:18.792Z,100494.02
2019-03-19T22:32:47.510Z,100497.03
2019-03-19T22:35:16.021Z,100492.28
2019-03-19T22:37:44.412Z,100494.08
2019-03-19T22:40:18.990Z,100498.50
2019-03-19T22:42:47.550Z,100496.77
2019-03-19T22:45:16.782Z,100497.33
2019-03-19T22:47:45.160Z,100496.84
2019-03-19T22:50:37.245Z,100496.91
2019-03-19T22:53:05.639Z,100499.17
2019-03-19T22:55:34.017Z,100498.75
2019-03-19T22:58:02.398Z,100497.13
2019-03-19T23:00:38.161Z,100493.16
2019-03-19T23:03:07.473Z,100497.58
2019-03-19T23:05:36.384Z,100500.22
2019-03-19T23:08:05.110Z,100511.70
2019-03-19T23:10:33.565Z,100512.16
2019-03-19T23:13:01.956Z,100510.83
2019-03-19T23:15:30.335Z,100515.25
2019-03-19T23:17:58.710Z,100516.19
2019-03-19T23:20:27.332Z,100508.33
2019-03-19T23:22:55.723Z,100511.42
2019-03-19T23:25:24.105Z,100511.05
2019-03-19T23:27:53.396Z,100511.50
2019-03-19T23:30:25.437Z,100518.48
2019-03-19T23:32:54.583Z,100519.88
2019-03-19T23:35:23.120Z,100524.78
2019-03-19T23:37:51.488Z,100521.34
2019-03-19T23:40:20.721Z,100518.31
2019-03-19T23:42:49.115Z,100517.90
2019-03-19T23:45:17.489Z,100521.41
2019-03-19T23:47:45.866Z,100525.44
2019-03-19T23:50:18.454Z,100522.80
2019-03-19T23:52:46.834Z,100514.45
2019-03-19T23:55:15.292Z,100510.56
2019-03-19T23:57:44.333Z,100513.20
